sensor_id;sensor_type;location;lat;lon;timestamp;temperature;humidity
45945;DHT22;31655;48.972;10.686;2024-02-21T02:39:53;4.50;99.90
45945;DHT22;31655;48.972;10.686;2024-02-21T02:42:18;4.50;99.90
45945;DHT22;31655;48.972;10.686;2024-02-21T02:44:44;4.50;99.90
45945;DHT22;31655;48.972;10.686;2024-02-21T02:47:09;4.50;99.90
45945;DHT22;31655;48.972;10.686;2024-02-21T02:49:35;4.50;99.90
45945;DHT22;31655;48.972;10.686;2024-02-21T02:52:00;4.50;99.90
45945;DHT22;31655;48.972;10.686;2024-02-21T02:54:26;4.50;99.90
45945;DHT22;31655;48.972;10.686;2024-02-21T02:56:51;4.60;99.90
45945;DHT22;31655;48.972;10.686;2024-02-21T02:59:17;4.60;99.90
45945;DHT22;31655;48.972;10.686;2024-02-21T03:01:42;4.50;99.90
45945;DHT22;31655;48.972;10.686;2024-02-21T03:04:08;4.60;99.90
45945;DHT22;31655;48.972;10.686;2024-02-21T03:06:33;4.50;99.90
45945;DHT22;31655;48.972;10.686;2024-02-21T03:08:59;4.50;99.90
45945;DHT22;31655;48.972;10.686;2024-02-21T03:11:25;4.50;99.90
45945;DHT22;31655;48.972;10.686;2024-02-21T03:13:55;4.50;99.90
45945;DHT22;31655;48.972;10.686;2024-02-21T03:16:22;4.60;99.90
45945;DHT22;31655;48.972;10.686;2024-02-21T03:18:47;4.50;99.90
45945;DHT22;31655;48.972;10.686;2024-02-21T03:21:13;4.60;99.90
45945;DHT22;31655;48.972;10.686;2024-02-21T03:23:39;4.60;99.90
45945;DHT22;31655;48.972;10.686;2024-02-21T03:26:04;4.50;99.90
45945;DHT22;31655;48.972;10.686;2024-02-21T03:28:30;4.50;99.90
45945;DHT22;31655;48.972;10.686;2024-02-21T03:30:56;4.50;99.90
45945;DHT22;31655;48.972;10.686;2024-02-21T03:33:22;4.50;99.90
45945;DHT22;31655;48.972;10.686;2024-02-21T03:35:48;4.40;99.90
45945;DHT22;31655;48.972;10.686;2024-02-21T03:38:14;4.40;99.90
45945;DHT22;31655;48.972;10.686;2024-02-21T03:40:40;4.40;99.90
45945;DHT22;31655;48.972;10.686;2024-02-21T03:43:05;4.40;99.90
45945;DHT22;31655;48.972;10.686;2024-02-21T03:45:31;4.50;99.90
45945;DHT22;31655;48.972;10.686;2024-02-21T03:47:56;4.40;99.90
45945;DHT22;31655;48.972;10.686;2024-02-21T03:52:48;4.50;99.90
45945;DHT22;31655;48.972;10.686;2024-02-21T03:55:13;4.40;99.90
45945;DHT22;31655;48.972;10.686;2024-02-21T03:57:39;4.40;99.90
45945;DHT22;31655;48.972;10.686;2024-02-21T04:00:05;4.40;99.90
45945;DHT22;31655;48.972;10.686;2024-02-21T04:02:36;4.40;99.90
45945;DHT22;31655;48.972;10.686;2024-02-21T04:05:01;4.40;99.90
45945;DHT22;31655;48.972;10.686;2024-02-21T04:07:27;4.30;99.90
45945;DHT22;31655;48.972;10.686;2024-02-21T04:09:53;4.40;99.90
45945;DHT22;31655;48.972;10.686;2024-02-21T04:12:18;6.10;99.90
45945;DHT22;31655;48.972;10.686;2024-02-21T04:14:44;4.40;99.90
45945;DHT22;31655;48.972;10.686;2024-02-21T04:17:09;4.40;99.90
45945;DHT22;31655;48.972;10.686;2024-02-21T04:19:35;4.40;99.90
45945;DHT22;31655;48.972;10.686;2024-02-21T04:22:01;4.50;99.90
45945;DHT22;31655;48.972;10.686;2024-02-21T04:24:26;4.50;99.90
45945;DHT22;31655;48.972;10.686;2024-02-21T04:26:52;4.40;99.90
45945;DHT22;31655;48.972;10.686;2024-02-21T04:29:18;4.40;99.90
45945;DHT22;31655;48.972;10.686;2024-02-21T04:31:43;4.40;99.90
45945;DHT22;31655;48.972;10.686;2024-02-21T04:34:09;4.40;99.90
45945;DHT22;31655;48.972;10.686;2024-02-21T04:36:34;4.30;99.90
45945;DHT22;31655;48.972;10.686;2024-02-21T04:39:00;4.40;99.90
45945;DHT22;31655;48.972;10.686;2024-02-21T04:41:25;4.40;99.90
45945;DHT22;31655;48.972;10.686;2024-02-21T04:43:51;4.50;99.90
45945;DHT22;31655;48.972;10.686;2024-02-21T04:46:16;4.50;99.90
45945;DHT22;31655;48.972;10.686;2024-02-21T04:48:42;4.50;99.90
45945;DHT22;31655;48.972;10.686;2024-02-21T04:51:07;4.60;99.90
45945;DHT22;31655;48.972;10.686;2024-02-21T04:53:33;4.50;99.90
45945;DHT22;31655;48.972;10.686;2024-02-21T04:55:58;4.50;99.90
45945;DHT22;31655;48.972;10.686;2024-02-21T04:58:25;4.50;99.90
45945;DHT22;31655;48.972;10.686;2024-02-21T05:00:51;4.40;99.90
45945;DHT22;31655;48.972;10.686;2024-02-21T05:03:17;4.50;99.90
45945;DHT22;31655;48.972;10.686;2024-02-21T05:05:42;4.40;99.90
45945;DHT22;31655;48.972;10.686;2024-02-21T05:08:10;4.40;99.90
45945;DHT22;31655;48.972;10.686;2024-02-21T05:10:36;4.30;99.90
45945;DHT22;31655;48.972;10.686;2024-02-21T05:13:01;4.30;99.90
45945;DHT22;31655;48.972;10.686;2024-02-21T05:15:27;4.30;99.90
45945;DHT22;31655;48.972;10.686;2024-02-21T05:17:52;4.30;99.90
45945;DHT22;31655;48.972;10.686;2024-02-21T05:22:44;4.30;99.90
45945;DHT22;31655;48.972;10.686;2024-02-21T05:25:10;4.30;99.90
45945;DHT22;31655;48.972;10.686;2024-02-21T05:27:35;4.30;99.90
45945;DHT22;31655;48.972;10.686;2024-02-21T05:30:02;4.30;99.90
45945;DHT22;31655;48.972;10.686;2024-02-21T05:32:28;4.30;99.90
45945;DHT22;31655;48.972;10.686;2024-02-21T05:34:54;4.30;99.90
45945;DHT22;31655;48.972;10.686;2024-02-21T05:37:20;4.20;99.90
45945;DHT22;31655;48.972;10.686;2024-02-21T05:39:45;4.20;99.90
45945;DHT22;31655;48.972;10.686;2024-02-21T05:42:11;4.20;99.90
45945;DHT22;31655;48.972;10.686;2024-02-21T05:44:36;6.70;99.90
45945;DHT22;31655;48.972;10.686;2024-02-21T05:47:02;4.20;99.90
45945;DHT22;31655;48.972;10.686;2024-02-21T05:49:28;4.00;99.90
45945;DHT22;31655;48.972;10.686;2024-02-21T05:51:53;4.00;99.90
45945;DHT22;31655;48.972;10.686;2024-02-21T05:54:19;3.90;99.90
45945;DHT22;31655;48.972;10.686;2024-02-21T05:56:45;3.90;99.90
45945;DHT22;31655;48.972;10.686;2024-02-21T05:59:12;3.90;99.90
45945;DHT22;31655;48.972;10.686;2024-02-21T06:01:39;3.80;99.90
45945;DHT22;31655;48.972;10.686;2024-02-21T06:04:05;3.90;99.90
45945;DHT22;31655;48.972;10.686;2024-02-21T06:06:32;3.90;99.90
45945;DHT22;31655;48.972;10.686;2024-02-21T06:08:57;3.80;99.90
45945;DHT22;31655;48.972;10.686;2024-02-21T06:11:24;3.80;99.90
45945;DHT22;31655;48.972;10.686;2024-02-21T06:13:49;3.70;99.90
45945;DHT22;31655;48.972;10.686;2024-02-21T06:16:15;3.70;99.90
45945;DHT22;31655;48.972;10.686;2024-02-21T06:18:40;3.60;99.90
45945;DHT22;31655;48.972;10.686;2024-02-21T06:21:06;3.60;99.90
45945;DHT22;31655;48.972;10.686;2024-02-21T06:23:32;3.50;99.90
45945;DHT22;31655;48.972;10.686;2024-02-21T06:25:57;3.50;99.90
45945;DHT22;31655;48.972;10.686;2024-02-21T06:28:23;3.40;99.90
45945;DHT22;31655;48.972;10.686;2024-02-21T06:30:48;3.40;99.90
45945;DHT22;31655;48.972;10.686;2024-02-21T06:33:14;3.40;99.90
45945;DHT22;31655;48.972;10.686;2024-02-21T06:35:39;3.30;99.90
45945;DHT22;31655;48.972;10.686;2024-02-21T06:38:07;2.90;99.90
45945;DHT22;31655;48.972;10.686;2024-02-21T06:40:33;3.40;99.90
45945;DHT22;31655;48.972;10.686;2024-02-21T06:43:04;3.40;99.90
45945;DHT22;31655;48.972;10.686;2024-02-21T06:45:30;3.50;99.90
45945;DHT22;31655;48.972;10.686;2024-02-21T06:47:56;3.60;99.90
45945;DHT22;31655;48.972;10.686;2024-02-21T06:50:21;3.80;99.90
45945;DHT22;31655;48.972;10.686;2024-02-21T06:52:47;3.80;99.90
45945;DHT22;31655;48.972;10.686;2024-02-21T06:55:12;4.00;99.90
45945;DHT22;31655;48.972;10.686;2024-02-21T06:57:38;4.40;99.90
45945;DHT22;31655;48.972;10.686;2024-02-21T07:00:04;5.00;99.90
45945;DHT22;31655;48.972;10.686;2024-02-21T07:02:33;5.30;99.90
45945;DHT22;31655;48.972;10.686;2024-02-21T07:04:59;5.70;99.90
45945;DHT22;31655;48.972;10.686;2024-02-21T07:07:25;5.90;99.90
45945;DHT22;31655;48.972;10.686;2024-02-21T07:09:50;6.20;99.90
45945;DHT22;31655;48.972;10.686;2024-02-21T07:12:16;6.30;99.90
45945;DHT22;31655;48.972;10.686;2024-02-21T07:14:42;6.60;99.90
45945;DHT22;31655;48.972;10.686;2024-02-21T07:17:08;6.80;99.90
45945;DHT22;31655;48.972;10.686;2024-02-21T07:19:33;7.10;99.90
45945;DHT22;31655;48.972;10.686;2024-02-21T07:22:00;7.40;99.90
45945;DHT22;31655;48.972;10.686;2024-02-21T07:24:26;7.70;99.90
45945;DHT22;31655;48.972;10.686;2024-02-21T07:26:51;8.20;99.90
45945;DHT22;31655;48.972;10.686;2024-02-21T07:29:18;8.30;99.90
45945;DHT22;31655;48.972;10.686;2024-02-21T07:31:44;8.20;99.90
45945;DHT22;31655;48.972;10.686;2024-02-21T07:34:10;8.10;99.90
45945;DHT22;31655;48.972;10.686;2024-02-21T07:36:36;8.10;99.90
45945;DHT22;31655;48.972;10.686;2024-02-21T07:39:05;8.20;99.90
45945;DHT22;31655;48.972;10.686;2024-02-21T07:41:31;8.30;99.90
45945;DHT22;31655;48.972;10.686;2024-02-21T07:43:56;8.30;99.90
45945;DHT22;31655;48.972;10.686;2024-02-21T07:46:22;9.20;99.90
45945;DHT22;31655;48.972;10.686;2024-02-21T07:48:48;9.20;99.90
45945;DHT22;31655;48.972;10.686;2024-02-21T07:51:14;9.30;99.90
45945;DHT22;31655;48.972;10.686;2024-02-21T07:53:42;9.30;99.90
45945;DHT22;31655;48.972;10.686;2024-02-21T07:56:11;9.20;99.90
45945;DHT22;31655;48.972;10.686;2024-02-21T07:58:36;9.10;99.90
45945;DHT22;31655;48.972;10.686;2024-02-21T08:01:02;9.40;99.90
45945;DHT22;31655;48.972;10.686;2024-02-21T08:03:27;9.70;99.90
45945;DHT22;31655;48.972;10.686;2024-02-21T08:05:53;9.50;99.90
45945;DHT22;31655;48.972;10.686;2024-02-21T08:08:19;9.70;99.90
45945;DHT22;31655;48.972;10.686;2024-02-21T08:10:46;9.60;99.90
45945;DHT22;31655;48.972;10.686;2024-02-21T08:13:12;10.30;99.90
45945;DHT22;31655;48.972;10.686;2024-02-21T08:15:37;10.80;99.90
45945;DHT22;31655;48.972;10.686;2024-02-21T08:18:05;11.60;99.90
45945;DHT22;31655;48.972;10.686;2024-02-21T08:20:30;12.40;99.90
45945;DHT22;31655;48.972;10.686;2024-02-21T08:22:56;13.80;99.90
45945;DHT22;31655;48.972;10.686;2024-02-21T08:25:22;12.50;99.90
45945;DHT22;31655;48.972;10.686;2024-02-21T08:27:47;12.50;99.90
45945;DHT22;31655;48.972;10.686;2024-02-21T08:30:13;13.20;99.90
45945;DHT22;31655;48.972;10.686;2024-02-21T08:32:38;11.40;99.90
45945;DHT22;31655;48.972;10.686;2024-02-21T08:35:04;11.60;99.90
45945;DHT22;31655;48.972;10.686;2024-02-21T08:37:30;12.10;99.90
45945;DHT22;31655;48.972;10.686;2024-02-21T08:39:56;12.10;99.90
45945;DHT22;31655;48.972;10.686;2024-02-21T08:42:21;12.60;99.90
45945;DHT22;31655;48.972;10.686;2024-02-21T08:44:47;13.00;99.90
45945;DHT22;31655;48.972;10.686;2024-02-21T08:47:12;13.10;99.90
45945;DHT22;31655;48.972;10.686;2024-02-21T08:49:38;13.10;99.90
45945;DHT22;31655;48.972;10.686;2024-02-21T08:52:04;13.10;99.90
45945;DHT22;31655;48.972;10.686;2024-02-21T08:54:31;13.00;99.90
45945;DHT22;31655;48.972;10.686;2024-02-21T08:56:56;13.20;99.90
45945;DHT22;31655;48.972;10.686;2024-02-21T08:59:22;14.00;99.90
45945;DHT22;31655;48.972;10.686;2024-02-21T09:01:47;14.20;99.90
45945;DHT22;31655;48.972;10.686;2024-02-21T09:04:13;13.90;99.90
45945;DHT22;31655;48.972;10.686;2024-02-21T09:06:38;14.50;99.90
45945;DHT22;31655;48.972;10.686;2024-02-21T09:09:08;14.60;99.90
45945;DHT22;31655;48.972;10.686;2024-02-21T09:11:34;14.70;99.80
45945;DHT22;31655;48.972;10.686;2024-02-21T09:14:00;15.10;97.70
45945;DHT22;31655;48.972;10.686;2024-02-21T09:16:25;14.80;97.50
45945;DHT22;31655;48.972;10.686;2024-02-21T09:18:51;14.70;96.70
45945;DHT22;31655;48.972;10.686;2024-02-21T09:21:18;14.40;95.80
45945;DHT22;31655;48.972;10.686;2024-02-21T09:23:44;14.30;96.30
45945;DHT22;31655;48.972;10.686;2024-02-21T09:26:10;14.60;96.50
45945;DHT22;31655;48.972;10.686;2024-02-21T09:28:39;14.10;97.10
45945;DHT22;31655;48.972;10.686;2024-02-21T09:31:04;14.10;97.10
45945;DHT22;31655;48.972;10.686;2024-02-21T09:33:30;13.80;97.60
45945;DHT22;31655;48.972;10.686;2024-02-21T09:35:56;13.60;97.60
45945;DHT22;31655;48.972;10.686;2024-02-21T09:38:21;14.00;97.60
45945;DHT22;31655;48.972;10.686;2024-02-21T09:40:47;14.00;98.20
45945;DHT22;31655;48.972;10.686;2024-02-21T09:43:17;14.00;98.80
45945;DHT22;31655;48.972;10.686;2024-02-21T09:45:46;14.30;98.40
45945;DHT22;31655;48.972;10.686;2024-02-21T09:50:47;14.10;98.20
45945;DHT22;31655;48.972;10.686;2024-02-21T09:53:14;14.30;98.20
45945;DHT22;31655;48.972;10.686;2024-02-21T09:55:40;14.30;98.20
45945;DHT22;31655;48.972;10.686;2024-02-21T09:58:07;14.40;97.80
45945;DHT22;31655;48.972;10.686;2024-02-21T10:00:35;14.60;97.30
45945;DHT22;31655;48.972;10.686;2024-02-21T10:03:01;14.00;97.90
45945;DHT22;31655;48.972;10.686;2024-02-21T10:05:26;13.70;99.40
45945;DHT22;31655;48.972;10.686;2024-02-21T10:07:52;13.20;99.00
45945;DHT22;31655;48.972;10.686;2024-02-21T10:10:18;13.20;99.40
45945;DHT22;31655;48.972;10.686;2024-02-21T10:12:51;13.10;99.00
45945;DHT22;31655;48.972;10.686;2024-02-21T10:15:21;13.30;98.80
45945;DHT22;31655;48.972;10.686;2024-02-21T10:17:58;13.30;98.70
45945;DHT22;31655;48.972;10.686;2024-02-21T10:20:24;13.20;99.40
45945;DHT22;31655;48.972;10.686;2024-02-21T10:23:03;13.30;99.20
45945;DHT22;31655;48.972;10.686;2024-02-21T10:25:34;13.10;99.30
45945;DHT22;31655;48.972;10.686;2024-02-21T10:27:59;13.00;99.80
45945;DHT22;31655;48.972;10.686;2024-02-21T10:32:53;12.60;99.90
45945;DHT22;31655;48.972;10.686;2024-02-21T10:35:29;12.40;99.90
45945;DHT22;31655;48.972;10.686;2024-02-21T10:37:56;12.40;99.90
45945;DHT22;31655;48.972;10.686;2024-02-21T10:40:30;12.50;99.90
45945;DHT22;31655;48.972;10.686;2024-02-21T10:42:57;12.70;99.90
45945;DHT22;31655;48.972;10.686;2024-02-21T10:45:36;12.50;99.90
45945;DHT22;31655;48.972;10.686;2024-02-21T10:48:12;12.40;99.90
45945;DHT22;31655;48.972;10.686;2024-02-21T10:50:53;12.40;99.90
45945;DHT22;31655;48.972;10.686;2024-02-21T10:58:36;12.30;99.90
45945;DHT22;31655;48.972;10.686;2024-02-21T11:01:03;12.40;99.90
45945;DHT22;31655;48.972;10.686;2024-02-21T11:03:30;12.70;99.90
45945;DHT22;31655;48.972;10.686;2024-02-21T11:05:56;12.90;99.90
45945;DHT22;31655;48.972;10.686;2024-02-21T11:08:22;14.90;99.90
45945;DHT22;31655;48.972;10.686;2024-02-21T11:10:50;13.30;99.90
45945;DHT22;31655;48.972;10.686;2024-02-21T11:13:15;12.90;99.90
45945;DHT22;31655;48.972;10.686;2024-02-21T11:15:41;12.90;99.90
45945;DHT22;31655;48.972;10.686;2024-02-21T11:18:07;13.10;99.90
45945;DHT22;31655;48.972;10.686;2024-02-21T11:20:36;13.20;99.90
45945;DHT22;31655;48.972;10.686;2024-02-21T11:23:02;13.40;99.90
45945;DHT22;31655;48.972;10.686;2024-02-21T11:25:29;13.50;99.50
45945;DHT22;31655;48.972;10.686;2024-02-21T11:28:25;13.30;99.90
45945;DHT22;31655;48.972;10.686;2024-02-21T11:30:51;13.40;99.90
45945;DHT22;31655;48.972;10.686;2024-02-21T11:33:16;13.00;98.70
45945;DHT22;31655;48.972;10.686;2024-02-21T11:35:42;12.80;99.90
45945;DHT22;31655;48.972;10.686;2024-02-21T11:38:09;12.80;99.90
45945;DHT22;31655;48.972;10.686;2024-02-21T11:40:38;12.90;99.50
45945;DHT22;31655;48.972;10.686;2024-02-21T11:43:05;14.10;99.90
45945;DHT22;31655;48.972;10.686;2024-02-21T11:45:31;13.20;99.90
45945;DHT22;31655;48.972;10.686;2024-02-21T11:47:58;13.20;99.90
45945;DHT22;31655;48.972;10.686;2024-02-21T11:50:26;13.50;99.90
45945;DHT22;31655;48.972;10.686;2024-02-21T11:52:54;13.30;99.00
45945;DHT22;31655;48.972;10.686;2024-02-21T11:55:21;13.20;99.80
45945;DHT22;31655;48.972;10.686;2024-02-21T12:02:55;12.60;99.90
45945;DHT22;31655;48.972;10.686;2024-02-21T12:05:27;12.50;99.90
45945;DHT22;31655;48.972;10.686;2024-02-21T12:07:54;12.80;99.70
45945;DHT22;31655;48.972;10.686;2024-02-21T12:10:20;12.80;99.90
45945;DHT22;31655;48.972;10.686;2024-02-21T12:12:46;12.70;98.60
45945;DHT22;31655;48.972;10.686;2024-02-21T12:15:11;12.50;99.00
45945;DHT22;31655;48.972;10.686;2024-02-21T12:17:37;15.10;99.90
45945;DHT22;31655;48.972;10.686;2024-02-21T12:20:03;12.80;99.70
45945;DHT22;31655;48.972;10.686;2024-02-21T12:22:39;12.70;99.90
45945;DHT22;31655;48.972;10.686;2024-02-21T12:25:25;12.70;99.90
45945;DHT22;31655;48.972;10.686;2024-02-21T12:27:54;12.80;99.90
45945;DHT22;31655;48.972;10.686;2024-02-21T12:30:19;12.70;99.90
45945;DHT22;31655;48.972;10.686;2024-02-21T12:32:46;12.40;99.90
45945;DHT22;31655;48.972;10.686;2024-02-21T12:35:11;12.40;99.90
45945;DHT22;31655;48.972;10.686;2024-02-21T12:37:37;12.60;99.90
45945;DHT22;31655;48.972;10.686;2024-02-21T12:40:08;13.90;99.90
45945;DHT22;31655;48.972;10.686;2024-02-21T12:42:34;12.60;99.90
45945;DHT22;31655;48.972;10.686;2024-02-21T12:45:01;12.50;99.90
45945;DHT22;31655;48.972;10.686;2024-02-21T12:47:28;12.30;99.90
45945;DHT22;31655;48.972;10.686;2024-02-21T12:49:53;12.50;99.90
45945;DHT22;31655;48.972;10.686;2024-02-21T12:52:19;12.60;99.90
45945;DHT22;31655;48.972;10.686;2024-02-21T12:54:45;15.10;99.90
45945;DHT22;31655;48.972;10.686;2024-02-21T12:57:10;12.60;99.90
45945;DHT22;31655;48.972;10.686;2024-02-21T12:59:36;12.50;99.90
45945;DHT22;31655;48.972;10.686;2024-02-21T13:02:01;12.40;99.90
45945;DHT22;31655;48.972;10.686;2024-02-21T13:04:27;12.70;99.90
45945;DHT22;31655;48.972;10.686;2024-02-21T13:06:53;12.40;99.90
45945;DHT22;31655;48.972;10.686;2024-02-21T13:09:19;12.50;99.90
45945;DHT22;31655;48.972;10.686;2024-02-21T13:11:45;12.40;99.90
45945;DHT22;31655;48.972;10.686;2024-02-21T13:14:11;12.40;99.90
45945;DHT22;31655;48.972;10.686;2024-02-21T13:16:39;11.60;99.90
45945;DHT22;31655;48.972;10.686;2024-02-21T13:19:08;12.50;99.90
45945;DHT22;31655;48.972;10.686;2024-02-21T13:21:37;12.30;99.90
45945;DHT22;31655;48.972;10.686;2024-02-21T13:24:03;12.30;99.90
45945;DHT22;31655;48.972;10.686;2024-02-21T13:26:28;12.40;99.90
45945;DHT22;31655;48.972;10.686;2024-02-21T13:28:54;12.30;99.90
45945;DHT22;31655;48.972;10.686;2024-02-21T13:31:20;12.10;99.90
45945;DHT22;31655;48.972;10.686;2024-02-21T13:33:46;12.20;99.90
45945;DHT22;31655;48.972;10.686;2024-02-21T13:36:12;11.90;99.90
45945;DHT22;31655;48.972;10.686;2024-02-21T13:41:07;11.90;99.90
45945;DHT22;31655;48.972;10.686;2024-02-21T13:43:33;12.00;99.90
45945;DHT22;31655;48.972;10.686;2024-02-21T13:46:00;12.00;99.90
45945;DHT22;31655;48.972;10.686;2024-02-21T13:48:30;12.70;99.90
45945;DHT22;31655;48.972;10.686;2024-02-21T13:50:56;12.10;99.90
45945;DHT22;31655;48.972;10.686;2024-02-21T13:53:22;13.10;99.90
45945;DHT22;31655;48.972;10.686;2024-02-21T13:55:48;12.30;99.90
45945;DHT22;31655;48.972;10.686;2024-02-21T13:58:15;12.40;99.90
45945;DHT22;31655;48.972;10.686;2024-02-21T14:00:41;12.40;99.90
45945;DHT22;31655;48.972;10.686;2024-02-21T14:03:06;12.50;99.90
45945;DHT22;31655;48.972;10.686;2024-02-21T14:05:32;12.20;99.90
45945;DHT22;31655;48.972;10.686;2024-02-21T14:07:57;12.00;99.90
45945;DHT22;31655;48.972;10.686;2024-02-21T14:10:23;11.90;99.90
45945;DHT22;31655;48.972;10.686;2024-02-21T14:12:49;11.90;99.90
45945;DHT22;31655;48.972;10.686;2024-02-21T14:15:14;12.10;99.90
45945;DHT22;31655;48.972;10.686;2024-02-21T14:17:42;12.00;99.90
45945;DHT22;31655;48.972;10.686;2024-02-21T14:20:08;12.00;99.90
45945;DHT22;31655;48.972;10.686;2024-02-21T14:22:34;12.00;99.90
45945;DHT22;31655;48.972;10.686;2024-02-21T14:25:03;13.10;99.90
45945;DHT22;31655;48.972;10.686;2024-02-21T14:27:32;12.10;99.90
45945;DHT22;31655;48.972;10.686;2024-02-21T14:29:57;12.20;99.90
45945;DHT22;31655;48.972;10.686;2024-02-21T14:32:23;12.20;99.90
45945;DHT22;31655;48.972;10.686;2024-02-21T14:34:49;12.20;99.90
45945;DHT22;31655;48.972;10.686;2024-02-21T14:37:15;12.20;99.90
45945;DHT22;31655;48.972;10.686;2024-02-21T14:39:41;12.20;99.90
45945;DHT22;31655;48.972;10.686;2024-02-21T14:42:07;12.00;99.90
45945;DHT22;31655;48.972;10.686;2024-02-21T14:44:35;12.20;99.90
45945;DHT22;31655;48.972;10.686;2024-02-21T14:47:00;11.70;99.90
45945;DHT22;31655;48.972;10.686;2024-02-21T14:49:26;11.50;99.90
45945;DHT22;31655;48.972;10.686;2024-02-21T14:51:53;11.40;99.90
45945;DHT22;31655;48.972;10.686;2024-02-21T14:54:20;11.40;99.90
45945;DHT22;31655;48.972;10.686;2024-02-21T14:56:45;11.50;99.90
45945;DHT22;31655;48.972;10.686;2024-02-21T14:59:12;11.50;99.90
45945;DHT22;31655;48.972;10.686;2024-02-21T15:01:38;11.50;99.90
45945;DHT22;31655;48.972;10.686;2024-02-21T15:04:04;11.60;99.90
45945;DHT22;31655;48.972;10.686;2024-02-21T15:06:29;11.50;99.90
45945;DHT22;31655;48.972;10.686;2024-02-21T15:08:57;11.30;99.90
45945;DHT22;31655;48.972;10.686;2024-02-21T15:11:22;11.30;99.90
45945;DHT22;31655;48.972;10.686;2024-02-21T15:13:48;11.30;99.90
45945;DHT22;31655;48.972;10.686;2024-02-21T15:16:14;11.30;99.90
45945;DHT22;31655;48.972;10.686;2024-02-21T15:18:41;11.20;99.90
45945;DHT22;31655;48.972;10.686;2024-02-21T15:21:07;11.00;99.90
45945;DHT22;31655;48.972;10.686;2024-02-21T15:23:36;10.90;99.90
45945;DHT22;31655;48.972;10.686;2024-02-21T15:26:01;10.90;99.90
45945;DHT22;31655;48.972;10.686;2024-02-21T15:28:27;11.00;99.90
45945;DHT22;31655;48.972;10.686;2024-02-21T15:30:54;10.70;99.90
45945;DHT22;31655;48.972;10.686;2024-02-21T15:33:19;10.70;99.90
45945;DHT22;31655;48.972;10.686;2024-02-21T15:35:45;10.70;99.90
45945;DHT22;31655;48.972;10.686;2024-02-21T15:38:11;10.80;99.90
45945;DHT22;31655;48.972;10.686;2024-02-21T15:40:37;10.80;99.90
45945;DHT22;31655;48.972;10.686;2024-02-21T15:43:03;10.80;99.90
45945;DHT22;31655;48.972;10.686;2024-02-21T15:45:29;10.70;99.90
45945;DHT22;31655;48.972;10.686;2024-02-21T15:47:54;10.60;99.90
45945;DHT22;31655;48.972;10.686;2024-02-21T15:50:20;10.50;99.90
45945;DHT22;31655;48.972;10.686;2024-02-21T15:52:45;10.50;99.90
45945;DHT22;31655;48.972;10.686;2024-02-21T15:55:11;10.60;99.90
45945;DHT22;31655;48.972;10.686;2024-02-21T15:57:38;10.50;99.90
45945;DHT22;31655;48.972;10.686;2024-02-21T16:00:05;10.50;99.90
45945;DHT22;31655;48.972;10.686;2024-02-21T16:02:31;10.50;99.90
45945;DHT22;31655;48.972;10.686;2024-02-21T16:04:56;10.50;99.90
45945;DHT22;31655;48.972;10.686;2024-02-21T16:07:22;10.50;99.90
45945;DHT22;31655;48.972;10.686;2024-02-21T16:09:48;10.40;99.90
45945;DHT22;31655;48.972;10.686;2024-02-21T16:12:13;10.30;99.90
45945;DHT22;31655;48.972;10.686;2024-02-21T16:14:39;10.20;99.90
45945;DHT22;31655;48.972;10.686;2024-02-21T16:17:05;10.10;99.90
45945;DHT22;31655;48.972;10.686;2024-02-21T16:19:31;10.10;99.90
45945;DHT22;31655;48.972;10.686;2024-02-21T16:21:58;10.10;99.90
45945;DHT22;31655;48.972;10.686;2024-02-21T16:24:24;10.10;99.90
45945;DHT22;31655;48.972;10.686;2024-02-21T16:26:49;10.00;99.90
45945;DHT22;31655;48.972;10.686;2024-02-21T16:29:15;9.90;99.90
45945;DHT22;31655;48.972;10.686;2024-02-21T16:31:40;9.80;99.90
45945;DHT22;31655;48.972;10.686;2024-02-21T16:34:06;9.70;99.90
45945;DHT22;31655;48.972;10.686;2024-02-21T16:36:32;9.60;99.90
45945;DHT22;31655;48.972;10.686;2024-02-21T16:39:00;9.50;99.90
45945;DHT22;31655;48.972;10.686;2024-02-21T16:41:26;9.50;99.90
45945;DHT22;31655;48.972;10.686;2024-02-21T16:43:55;9.30;99.90
45945;DHT22;31655;48.972;10.686;2024-02-21T16:46:20;9.10;99.90
45945;DHT22;31655;48.972;10.686;2024-02-21T16:48:46;9.00;99.90
45945;DHT22;31655;48.972;10.686;2024-02-21T16:51:12;8.90;99.90
45945;DHT22;31655;48.972;10.686;2024-02-21T16:53:38;8.70;99.90
45945;DHT22;31655;48.972;10.686;2024-02-21T16:56:04;8.60;99.90
45945;DHT22;31655;48.972;10.686;2024-02-21T16:58:31;8.50;99.90
45945;DHT22;31655;48.972;10.686;2024-02-21T17:01:02;8.50;99.90
45945;DHT22;31655;48.972;10.686;2024-02-21T17:03:34;8.40;99.90
45945;DHT22;31655;48.972;10.686;2024-02-21T17:06:00;8.40;99.90
45945;DHT22;31655;48.972;10.686;2024-02-21T17:08:26;8.30;99.90
45945;DHT22;31655;48.972;10.686;2024-02-21T17:10:52;8.30;99.90
45945;DHT22;31655;48.972;10.686;2024-02-21T17:13:17;8.30;99.90
45945;DHT22;31655;48.972;10.686;2024-02-21T17:15:43;8.30;99.90
45945;DHT22;31655;48.972;10.686;2024-02-21T17:18:08;8.30;99.90
45945;DHT22;31655;48.972;10.686;2024-02-21T17:20:34;8.30;99.90
45945;DHT22;31655;48.972;10.686;2024-02-21T17:22:59;8.30;99.90
45945;DHT22;31655;48.972;10.686;2024-02-21T17:25:26;8.30;99.90
45945;DHT22;31655;48.972;10.686;2024-02-21T17:27:51;8.30;99.90
45945;DHT22;31655;48.972;10.686;2024-02-21T17:30:17;9.70;99.90
45945;DHT22;31655;48.972;10.686;2024-02-21T17:32:43;9.20;99.90
45945;DHT22;31655;48.972;10.686;2024-02-21T17:35:08;8.10;99.90
45945;DHT22;31655;48.972;10.686;2024-02-21T17:37:34;9.80;99.90
45945;DHT22;31655;48.972;10.686;2024-02-21T17:40:00;8.10;99.90
45945;DHT22;31655;48.972;10.686;2024-02-21T17:42:29;8.10;99.90
45945;DHT22;31655;48.972;10.686;2024-02-21T17:44:55;8.00;99.90
45945;DHT22;31655;48.972;10.686;2024-02-21T17:47:20;8.20;99.90
45945;DHT22;31655;48.972;10.686;2024-02-21T17:49:46;8.10;99.90
45945;DHT22;31655;48.972;10.686;2024-02-21T17:52:11;8.20;99.90
45945;DHT22;31655;48.972;10.686;2024-02-21T17:54:38;8.20;99.90
45945;DHT22;31655;48.972;10.686;2024-02-21T17:57:05;8.10;99.90
45945;DHT22;31655;48.972;10.686;2024-02-21T17:59:31;8.20;99.90
45945;DHT22;31655;48.972;10.686;2024-02-21T18:01:57;8.20;99.90
45945;DHT22;31655;48.972;10.686;2024-02-21T18:04:23;8.20;99.90
45945;DHT22;31655;48.972;10.686;2024-02-21T18:06:48;8.20;99.90
45945;DHT22;31655;48.972;10.686;2024-02-21T18:09:14;8.30;99.90
45945;DHT22;31655;48.972;10.686;2024-02-21T18:11:40;8.30;99.90
45945;DHT22;31655;48.972;10.686;2024-02-21T18:14:05;8.40;99.90
45945;DHT22;31655;48.972;10.686;2024-02-21T18:16:33;8.40;99.90
45945;DHT22;31655;48.972;10.686;2024-02-21T18:18:59;8.40;99.90